Time;durP1;ratioP1;P1;durP2;ratioP2;P2;SDS_P1;SDS_P2;PMS_P1;PMS_P2;Temp;Humidity;BMP_temperature;BMP_pressure;BME280_temperature;BME280_humidity;BME280_pressure;Samples;Min_cycle;Max_cycle;Signal;HPM_P1;HPM_P2
2022/04/13 00:01:09;;;;;;;;;3.00;3.00;;;;;18.08;52.07;100806.63;5018560;28;45475;-65
2022/04/13 00:03:34;;;;;;;;;1.67;1.00;;;;;18.08;51.98;100804.78;5018916;28;45795;-66
2022/04/13 00:06:00;;;;;;;;;1.00;1.00;;;;;18.13;52.36;100815.78;5018845;28;45265;-66
2022/04/13 00:08:25;;;;;;;;;2.67;1.00;;;;;18.03;52.26;100803.69;5018990;28;45442;-65
2022/04/13 00:10:50;;;;;;;;;1.33;0.67;;;;;17.60;52.46;100734.50;5018982;28;45521;-65
2022/04/13 00:13:16;;;;;;;;;2.67;1.67;;;;;17.71;52.23;100754.72;5018826;28;46930;-66
2022/04/13 00:15:42;;;;;;;;;1.00;1.00;;;;;18.11;52.20;100822.41;5018475;28;45212;-65
2022/04/13 00:18:08;;;;;;;;;0.00;0.00;;;;;18.10;52.63;100834.19;5002410;28;45319;-65
2022/04/13 00:20:34;;;;;;;;;0.00;0.00;;;;;18.14;52.36;100838.16;4999239;28;45443;-66
2022/04/13 00:23:00;;;;;;;;;0.67;0.67;;;;;17.98;52.33;100806.94;4998604;28;46632;-65
2022/04/13 00:25:25;;;;;;;;;1.00;1.00;;;;;18.09;52.58;100840.59;4998858;28;45436;-65
2022/04/13 00:27:50;;;;;;;;;1.00;1.00;;;;;18.10;52.86;100842.25;4998943;28;45343;-66
2022/04/13 00:30:16;;;;;;;;;1.33;1.00;;;;;18.07;52.98;100838.09;5008055;28;45520;-66
2022/04/13 00:32:41;;;;;;;;;0.00;0.00;;;;;18.01;52.78;100849.59;5018313;28;46466;-66
2022/04/13 00:35:07;;;;;;;;;4.33;1.67;;;;;17.83;53.32;100825.81;5017211;28;45396;-65
2022/04/13 00:37:33;;;;;;;;;1.00;1.00;;;;;17.80;53.47;100820.78;5018206;28;45392;-67
2022/04/13 00:39:58;;;;;;;;;1.00;1.00;;;;;17.55;53.45;100779.09;5018674;28;45376;-65
2022/04/13 00:42:24;;;;;;;;;1.00;1.00;;;;;17.93;53.68;100847.03;5018297;28;45548;-67
2022/04/13 00:44:50;;;;;;;;;2.00;1.33;;;;;17.89;53.90;100846.56;5017850;28;45365;-65
2022/04/13 00:47:15;;;;;;;;;1.00;1.00;;;;;17.88;53.82;100844.06;5017822;28;45471;-66
2022/04/13 00:49:41;;;;;;;;;2.00;2.00;;;;;17.87;53.80;100843.25;5018217;28;45219;-67
2022/04/13 00:52:07;;;;;;;;;1.00;1.00;;;;;17.89;53.54;100833.13;5018126;28;45857;-67
2022/04/13 00:54:33;;;;;;;;;0.67;0.67;;;;;17.91;53.80;100844.53;5018632;28;45329;-65
2022/04/13 00:57:06;;;;;;;;;4.33;2.00;;;;;17.90;53.52;100829.41;5018038;28;45389;-65
2022/04/13 00:59:35;;;;;;;;;2.67;1.00;;;;;17.79;53.60;100821.00;5018381;28;45425;-67
2022/04/13 01:02:04;;;;;;;;;2.33;1.00;;;;;17.89;53.95;100838.50;5018050;28;46418;-67
2022/04/13 01:04:30;;;;;;;;;2.00;2.00;;;;;17.56;54.00;100791.53;5017823;28;45495;-64
2022/04/13 01:06:56;;;;;;;;;0.67;0.67;;;;;17.79;54.11;100832.59;5018329;28;45242;-65
2022/04/13 01:09:23;;;;;;;;;1.00;1.00;;;;;17.69;54.02;100823.16;5018329;28;45594;-65
2022/04/13 01:11:48;;;;;;;;;2.67;1.33;;;;;17.80;54.32;100836.94;5017360;28;46247;-66
2022/04/13 01:14:17;;;;;;;;;1.00;1.00;;;;;17.77;54.52;100837.31;5017276;28;45376;-66
2022/04/13 01:16:42;;;;;;;;;2.00;2.00;;;;;17.51;54.69;100812.78;5017871;28;45296;-66
2022/04/13 01:19:13;;;;;;;;;2.00;2.00;;;;;17.30;54.54;100765.16;5017689;28;45290;-65
2022/04/13 01:21:52;;;;;;;;;2.33;1.67;;;;;17.71;54.65;100838.06;5016325;28;45618;-66
2022/04/13 01:24:18;;;;;;;;;3.00;2.00;;;;;17.75;54.52;100839.38;5017661;28;45289;-65
2022/04/13 01:26:44;;;;;;;;;1.67;1.67;;;;;17.75;54.61;100839.38;5017206;28;45419;-66
2022/04/13 01:29:12;;;;;;;;;1.00;1.00;;;;;17.63;54.41;100814.81;5017729;28;45610;-66
2022/04/13 01:31:39;;;;;;;;;3.33;2.00;;;;;17.37;54.63;100786.72;5017753;28;46241;-66
2022/04/13 01:34:06;;;;;;;;;3.00;1.33;;;;;17.71;54.42;100853.38;5016105;28;45545;-65
2022/04/13 01:36:37;;;;;;;;;2.67;2.00;;;;;17.36;55.01;100803.88;5016434;28;45270;-66
2022/04/13 01:39:03;;;;;;;;;3.00;2.00;;;;;17.67;54.97;100852.91;5017963;28;45309;-66
2022/04/13 01:41:29;;;;;;;;;2.00;2.00;;;;;17.68;55.53;100853.75;5016977;28;46553;-65
2022/04/13 01:43:55;;;;;;;;;3.33;3.00;;;;;17.67;55.78;100852.91;5017436;28;45622;-66
2022/04/13 01:46:21;;;;;;;;;3.00;2.33;;;;;17.66;55.91;100853.09;5017000;28;45226;-67
2022/04/13 01:48:49;;;;;;;;;3.00;2.00;;;;;17.65;55.92;100863.00;5017182;28;45364;-66
2022/04/13 01:51:17;;;;;;;;;2.00;1.00;;;;;17.61;55.95;100845.56;5017275;28;45752;-66
2022/04/13 01:53:43;;;;;;;;;3.00;3.00;;;;;17.61;56.14;100859.84;5017181;28;45214;-67
2022/04/13 01:56:11;;;;;;;;;3.00;1.33;;;;;17.47;55.68;100844.56;5017485;28;45412;-66
2022/04/13 01:58:37;;;;;;;;;2.33;2.00;;;;;17.50;56.18;100841.50;5017532;28;45518;-66
2022/04/13 02:01:02;;;;;;;;;2.00;2.00;;;;;17.47;56.73;100849.13;5016729;28;45713;-68
2022/04/13 02:03:27;;;;;;;;;2.00;2.00;;;;;17.50;57.12;100862.19;5017379;28;45514;-66
2022/04/13 02:05:54;;;;;;;;;5.00;2.00;;;;;17.56;57.07;100878.38;5017178;28;45242;-65
2022/04/13 02:08:20;;;;;;;;;2.00;2.00;;;;;17.54;57.08;100883.13;5017684;28;45601;-66
2022/04/13 02:10:46;;;;;;;;;2.00;2.00;;;;;17.56;56.82;100882.94;5016839;28;47052;-65
2022/04/13 02:13:11;;;;;;;;;2.00;2.00;;;;;17.59;56.68;100882.56;5015606;28;45374;-68
2022/04/13 02:15:38;;;;;;;;;3.67;2.00;;;;;17.51;56.64;100871.91;5017380;28;45214;-67
2022/04/13 02:18:05;;;;;;;;;2.67;2.67;;;;;17.51;56.70;100871.91;5016947;28;45654;-65
2022/04/13 02:20:30;;;;;;;;;2.33;2.33;;;;;17.59;56.52;100882.56;5016871;28;45430;-65
2022/04/13 02:22:56;;;;;;;;;3.00;3.00;;;;;17.56;56.72;100882.94;5016781;28;45419;-66
2022/04/13 02:25:21;;;;;;;;;3.00;2.00;;;;;17.46;56.68;100872.47;5016516;28;45299;-65
2022/04/13 02:27:46;;;;;;;;;4.67;2.00;;;;;17.20;56.61;100835.28;5020067;28;45511;-68
2022/04/13 02:30:12;;;;;;;;;1.33;1.33;;;;;17.50;56.50;100889.88;5020354;28;45596;-65
2022/04/13 02:32:39;;;;;;;;;3.00;2.00;;;;;17.38;57.07;100874.41;5020288;28;45372;-66
2022/04/13 02:35:05;;;;;;;;;2.00;2.00;;;;;17.42;57.07;100898.06;5020558;28;45232;-64
2022/04/13 02:37:31;;;;;;;;;3.00;2.67;;;;;17.36;57.78;100893.41;5020445;28;45431;-66
2022/04/13 02:39:56;;;;;;;;;3.67;1.67;;;;;17.27;58.11;100889.97;5019673;28;45537;-66
2022/04/13 02:42:21;;;;;;;;;3.00;3.00;;;;;17.34;58.34;100904.34;5020154;28;46082;-65
2022/04/13 02:44:47;;;;;;;;;4.33;2.33;;;;;17.33;58.12;100897.28;5020211;28;45228;-66
2022/04/13 02:47:12;;;;;;;;;3.00;2.00;;;;;17.09;58.36;100848.34;5020271;28;45555;-66
2022/04/13 02:49:38;;;;;;;;;3.33;3.00;;;;;17.29;58.54;100893.31;5020170;28;46198;-66
2022/04/13 02:52:04;;;;;;;;;4.00;3.00;;;;;17.11;58.46;100852.53;5018830;28;45465;-66
2022/04/13 02:54:29;;;;;;;;;3.00;1.00;;;;;17.24;58.65;100874.22;5017552;28;45732;-65
2022/04/13 02:56:55;;;;;;;;;4.33;3.00;;;;;17.03;58.89;100845.41;5020160;28;45589;-65
2022/04/13 02:59:20;;;;;;;;;3.33;3.00;;;;;17.26;58.88;100876.72;5019764;28;46947;-65
2022/04/13 03:01:46;;;;;;;;;1.33;1.33;;;;;17.32;59.19;100886.72;5019982;28;45380;-65
2022/04/13 03:04:13;;;;;;;;;3.00;3.00;;;;;17.19;59.20;100865.88;5019583;28;45329;-65
2022/04/13 03:06:38;;;;;;;;;4.00;4.00;;;;;17.19;59.11;100860.50;5020119;28;45519;-66
2022/04/13 03:09:04;;;;;;;;;5.00;3.00;;;;;17.35;59.01;100889.03;5019792;28;46426;-65
2022/04/13 03:11:30;;;;;;;;;1.00;1.00;;;;;17.36;59.34;100906.00;5019213;28;45292;-66
2022/04/13 03:13:56;;;;;;;;;3.33;3.00;;;;;17.01;59.44;100852.78;5019919;28;45316;-66
2022/04/13 03:16:22;;;;;;;;;5.33;2.67;;;;;17.27;59.44;100903.41;5019752;28;45293;-66
2022/04/13 03:18:47;;;;;;;;;3.33;3.00;;;;;17.29;59.81;100922.88;5019695;28;46007;-65
2022/04/13 03:21:13;;;;;;;;;4.00;4.00;;;;;17.17;60.27;100910.88;5019580;28;45462;-65
2022/04/13 03:23:38;;;;;;;;;3.00;3.00;;;;;17.17;61.01;100924.31;5019897;28;45175;-67
2022/04/13 03:26:03;;;;;;;;;3.67;2.67;;;;;17.10;61.28;100909.97;5018255;28;45689;-65
2022/04/13 03:28:29;;;;;;;;;5.00;4.33;;;;;16.44;61.43;100817.56;5018148;28;46481;-65
2022/04/13 03:30:54;;;;;;;;;5.00;3.33;;;;;17.09;61.56;100934.31;5019598;28;45304;-66
2022/04/13 03:33:19;;;;;;;;;2.33;2.33;;;;;17.01;62.04;100933.34;5019512;28;45460;-65
2022/04/13 03:35:45;;;;;;;;;4.33;3.33;;;;;17.05;61.83;100944.59;5018348;28;45346;-65
2022/04/13 03:38:10;;;;;;;;;8.33;5.00;;;;;17.09;62.21;100942.38;5018015;28;46546;-66
2022/04/13 03:40:35;;;;;;;;;4.00;3.00;;;;;17.13;62.11;100939.13;5019079;28;45503;-65
2022/04/13 03:43:01;;;;;;;;;5.00;3.00;;;;;17.15;63.02;100944.34;5019450;28;45308;-65
2022/04/13 03:45:26;;;;;;;;;4.33;3.33;;;;;17.15;63.01;100939.78;5019487;28;45368;-66
2022/04/13 03:47:52;;;;;;;;;3.00;3.00;;;;;16.99;63.22;100926.50;5018534;28;46482;-66
2022/04/13 03:50:18;;;;;;;;;3.00;3.00;;;;;17.02;63.46;100935.06;5019295;28;45475;-65
2022/04/13 03:52:43;;;;;;;;;3.67;3.00;;;;;16.69;63.40;100890.69;5019296;28;45565;-66
2022/04/13 03:55:09;;;;;;;;;3.33;3.33;;;;;17.04;63.33;100948.31;5019475;28;45398;-66
2022/04/13 03:57:35;;;;;;;;;6.67;6.67;;;;;17.00;63.65;100952.34;5018690;28;46445;-66
2022/04/13 04:00:01;;;;;;;;;6.00;4.00;;;;;17.02;63.88;100950.34;5017558;28;45502;-66
2022/04/13 04:02:26;;;;;;;;;4.00;4.00;;;;;17.00;63.98;100944.28;5018495;28;45422;-65
2022/04/13 04:04:52;;;;;;;;;4.67;3.67;;;;;16.95;64.11;100928.72;5019074;28;45333;-67
2022/04/13 04:07:17;;;;;;;;;2.67;2.67;;;;;17.03;64.04;100950.16;5017551;28;48082;-65
2022/04/13 04:09:44;;;;;;;;;4.33;3.33;;;;;17.05;64.25;100949.97;5018871;28;45143;-65
2022/04/13 04:12:10;;;;;;;;;4.67;4.00;;;;;17.04;64.65;100959.06;5018719;28;45463;-66
2022/04/13 04:14:35;;;;;;;;;4.67;4.00;;;;;16.68;64.71;100895.22;5018874;28;45287;-66
2022/04/13 04:17:01;;;;;;;;;5.00;5.00;;;;;16.91;64.79;100931.94;5018020;28;45805;-65
2022/04/13 04:19:26;;;;;;;;;3.33;3.33;;;;;16.94;64.99;100942.34;5000082;28;45584;-66
2022/04/13 04:21:54;;;;;;;;;3.67;3.67;;;;;16.94;65.22;100948.53;5018614;28;45522;-66
2022/04/13 04:24:19;;;;;;;;;4.00;4.00;;;;;16.94;65.45;100959.28;5018491;28;45634;-65
2022/04/13 04:26:45;;;;;;;;;7.00;5.00;;;;;16.96;65.45;100968.00;5016627;28;46023;-65
2022/04/13 04:29:10;;;;;;;;;8.00;5.50;;;;;16.68;65.42;100916.69;5018504;28;45274;-65
2022/04/13 04:31:51;;;;;;;;;6.00;5.00;;;;;17.05;65.28;100976.00;5017909;28;45764;-65
2022/04/13 04:34:18;;;;;;;;;3.33;3.00;;;;;17.07;65.16;100979.34;5017316;28;45650;-66
2022/04/13 04:36:44;;;;;;;;;7.00;6.00;;;;;16.76;64.97;100928.38;5018285;28;46878;-65
2022/04/13 04:39:09;;;;;;;;;8.00;6.00;;;;;17.09;65.40;100986.19;5017713;28;45265;-65
2022/04/13 04:41:35;;;;;;;;;7.00;6.33;;;;;17.03;65.77;100984.25;5017956;28;45435;-66
2022/04/13 04:44:00;;;;;;;;;4.67;4.67;;;;;17.04;65.30;100980.53;5018325;28;45583;-64
2022/04/13 04:46:26;;;;;;;;;5.00;5.00;;;;;17.10;65.23;100990.56;5018134;28;45401;-65
2022/04/13 04:48:52;;;;;;;;;7.67;6.67;;;;;17.09;65.46;100983.50;5016597;28;45465;-67
2022/04/13 04:51:18;;;;;;;;;4.00;4.00;;;;;16.65;65.17;100911.66;5018048;28;45448;-65
2022/04/13 04:53:43;;;;;;;;;7.00;5.33;;;;;17.03;65.30;100981.56;5018505;28;45578;-65
2022/04/13 04:56:08;;;;;;;;;5.33;4.00;;;;;16.95;65.48;100971.69;5017359;28;45715;-65
2022/04/13 04:58:34;;;;;;;;;6.00;4.67;;;;;16.95;65.31;100976.22;5016438;28;45537;-66
2022/04/13 05:00:59;;;;;;;;;11.67;8.00;;;;;17.00;65.76;100987.25;5018348;28;45864;-66
2022/04/13 05:03:25;;;;;;;;;3.67;3.67;;;;;16.99;66.03;100988.28;5018315;28;45525;-66
2022/04/13 05:05:51;;;;;;;;;8.00;6.00;;;;;16.97;65.86;100982.25;5018041;28;46281;-65
2022/04/13 05:08:16;;;;;;;;;8.67;6.00;;;;;16.94;66.02;100991.50;5016615;28;45559;-67
2022/04/13 05:10:43;;;;;;;;;6.33;6.33;;;;;16.90;66.10;100992.06;5017101;28;45442;-66
2022/04/13 05:13:09;;;;;;;;;7.67;5.67;;;;;16.86;66.38;100999.63;5016614;28;45431;-66
2022/04/13 05:15:35;;;;;;;;;11.33;7.00;;;;;16.77;66.08;100981.06;5017567;28;45753;-67
2022/04/13 05:18:00;;;;;;;;;6.00;6.00;;;;;16.87;66.16;100997.78;5007931;28;46115;-66
2022/04/13 05:20:26;;;;;;;;;5.00;5.00;;;;;16.54;65.92;100946.13;4997772;28;45447;-66
2022/04/13 05:22:51;;;;;;;;;6.67;6.33;;;;;16.77;66.39;100989.13;4996651;28;45654;-67
2022/04/13 05:25:17;;;;;;;;;6.00;6.00;;;;;16.86;66.60;101012.22;5009660;28;45992;-66
2022/04/13 05:27:44;;;;;;;;;7.00;6.00;;;;;16.86;66.13;101012.22;5016019;28;46339;-65
2022/04/13 05:30:16;;;;;;;;;5.00;5.00;;;;;16.86;65.78;100993.44;5017627;28;45531;-67
2022/04/13 05:32:56;;;;;;;;;8.67;5.33;;;;;16.91;65.99;101001.78;4996267;28;45251;-66
2022/04/13 05:35:22;;;;;;;;;9.00;6.00;;;;;16.45;66.04;100923.88;4997843;28;46573;-67
2022/04/13 05:37:47;;;;;;;;;6.33;5.00;;;;;16.23;65.46;100884.44;5015053;28;45490;-66
2022/04/13 05:40:13;;;;;;;;;7.67;4.00;;;;;16.94;65.48;101012.16;5014668;28;45442;-66
2022/04/13 05:42:38;;;;;;;;;11.67;9.33;;;;;16.90;66.06;101006.31;5016593;28;45582;-66
2022/04/13 05:45:04;;;;;;;;;7.67;6.33;;;;;16.92;66.11;101006.13;5015795;28;47611;-66
2022/04/13 05:47:30;;;;;;;;;7.67;7.00;;;;;16.94;66.36;101017.53;5016808;28;45309;-66
2022/04/13 05:49:55;;;;;;;;;8.33;5.67;;;;;16.86;65.93;101004.19;5016542;28;45435;-67
2022/04/13 05:52:23;;;;;;;;;9.00;8.00;;;;;16.91;66.40;101017.91;5016627;28;45237;-67
2022/04/13 05:54:48;;;;;;;;;8.67;7.67;;;;;16.93;66.31;101015.88;5016745;28;47406;-66
2022/04/13 05:57:14;;;;;;;;;8.00;8.00;;;;;16.93;66.37;101022.06;5016550;28;45468;-64
2022/04/13 05:59:39;;;;;;;;;9.67;8.00;;;;;16.92;66.27;101020.41;5015532;28;45803;-65
2022/04/13 06:02:04;;;;;;;;;7.67;6.00;;;;;16.94;66.02;101017.53;5016472;28;45404;-66
2022/04/13 06:04:31;;;;;;;;;8.00;7.00;;;;;16.90;65.62;101014.38;5015674;28;47929;-67
2022/04/13 06:06:56;;;;;;;;;12.33;9.00;;;;;16.49;65.76;100957.41;5016418;28;45459;-68
2022/04/13 06:09:22;;;;;;;;;10.00;9.00;;;;;17.03;66.13;101038.81;5016626;28;45424;-65
2022/04/13 06:11:49;;;;;;;;;9.00;8.00;;;;;16.79;66.07;101004.03;5016996;28;45545;-67
2022/04/13 06:14:14;;;;;;;;;6.67;6.67;;;;;17.03;66.22;101037.97;5015946;28;46822;-68
2022/04/13 06:16:39;;;;;;;;;9.67;8.67;;;;;17.04;66.48;101042.31;5015880;28;45511;-66
2022/04/13 06:19:05;;;;;;;;;13.00;13.00;;;;;17.04;66.48;101053.06;5016546;28;45501;-68
2022/04/13 06:21:30;;;;;;;;;10.33;8.67;;;;;17.00;66.22;101039.13;5016569;28;45273;-72
2022/04/13 06:23:55;;;;;;;;;9.00;8.00;;;;;17.13;66.02;101051.97;5015962;28;48437;-67
2022/04/13 06:26:21;;;;;;;;;10.00;7.33;;;;;17.09;66.05;101045.31;5016253;28;45351;-66
2022/04/13 06:28:46;;;;;;;;;12.33;11.00;;;;;17.12;66.42;101055.69;4998761;28;45434;-67
2022/04/13 06:31:12;;;;;;;;;12.33;9.67;;;;;17.09;66.58;101053.34;5016422;28;45478;-67
2022/04/13 06:33:38;;;;;;;;;8.33;8.00;;;;;17.14;66.61;101077.00;5015850;28;45719;-67
2022/04/13 06:36:05;;;;;;;;;11.67;11.67;;;;;17.07;67.09;101076.88;5015918;28;45468;-68
2022/04/13 06:38:31;;;;;;;;;15.00;11.33;;;;;17.09;67.28;101080.22;5015685;28;45447;-67
2022/04/13 06:40:56;;;;;;;;;12.33;10.33;;;;;17.12;66.83;101085.22;5016249;28;45304;-67
2022/04/13 06:43:22;;;;;;;;;11.00;10.00;;;;;17.08;67.23;101089.28;5015842;28;45514;-66
2022/04/13 06:45:47;;;;;;;;;17.00;15.67;;;;;17.08;67.22;101078.56;5015684;28;45469;-66
2022/04/13 06:48:13;;;;;;;;;15.00;13.33;;;;;17.16;67.39;101093.75;5016474;28;45537;-66
2022/04/13 06:50:38;;;;;;;;;13.33;11.00;;;;;17.16;67.29;101099.97;5014939;28;45550;-66
2022/04/13 06:53:04;;;;;;;;;13.67;11.33;;;;;17.15;67.26;101100.16;5015032;28;47377;-67
2022/04/13 06:55:29;;;;;;;;;11.67;10.67;;;;;17.06;67.35;101102.06;5015567;28;45364;-67
2022/04/13 06:57:55;;;;;;;;;14.00;12.00;;;;;17.10;67.17;101111.44;5014638;28;45332;-67
2022/04/13 07:00:31;;;;;;;;;12.67;10.00;;;;;16.99;67.55;101104.63;5015511;28;45642;-68
2022/04/13 07:02:57;;;;;;;;;14.33;12.00;;;;;16.96;67.82;101109.50;5016003;28;46160;-65
2022/04/13 07:05:24;;;;;;;;;12.33;11.67;;;;;16.92;68.22;101108.19;5015725;28;45447;-67
2022/04/13 07:08:07;;;;;;;;;9.67;8.67;;;;;17.12;67.80;101136.28;5015856;28;45454;-67
2022/04/13 07:10:33;;;;;;;;;10.67;10.33;;;;;17.13;67.76;101146.00;5014103;28;45238;-67
2022/04/13 07:12:59;;;;;;;;;12.33;12.33;;;;;17.10;67.70;101151.75;5016770;28;46200;-66
2022/04/13 07:15:25;;;;;;;;;17.00;12.67;;;;;17.13;67.84;101156.75;5019189;28;45431;-66
2022/04/13 07:17:54;;;;;;;;;13.33;12.00;;;;;17.02;67.71;101154.47;5019188;28;45332;-67
2022/04/13 07:20:20;;;;;;;;;21.33;21.00;;;;;17.06;68.15;101171.91;5018045;28;45452;-66
2022/04/13 07:22:53;;;;;;;;;15.33;14.33;;;;;17.10;68.20;101183.97;5018570;28;46348;-66
2022/04/13 07:25:19;;;;;;;;;17.67;14.33;;;;;17.08;67.89;101169.88;5017396;28;45683;-68
2022/04/13 07:27:45;;;;;;;;;11.67;11.33;;;;;17.06;67.53;101165.72;5017936;28;45465;-65
2022/04/13 07:30:13;;;;;;;;;9.00;8.00;;;;;17.05;67.66;101158.66;5017046;28;45517;-67
2022/04/13 07:32:38;;;;;;;;;10.67;10.00;;;;;17.13;67.29;101189.00;5015171;28;46261;-66
2022/04/13 07:35:07;;;;;;;;;11.33;11.33;;;;;17.15;67.06;101181.59;5019382;28;45342;-78
2022/04/13 07:37:32;;;;;;;;;14.00;11.67;;;;;17.13;67.52;101194.38;5019259;28;45498;-67
2022/04/13 07:39:59;;;;;;;;;16.67;13.33;;;;;17.09;67.79;101187.69;5018966;28;45526;-65
2022/04/13 07:42:26;;;;;;;;;11.67;10.00;;;;;17.11;67.45;101180.28;5018825;28;46853;-67
2022/04/13 07:44:52;;;;;;;;;13.00;13.00;;;;;17.04;67.12;101163.19;5018653;28;45467;-66
2022/04/13 07:47:22;;;;;;;;;11.67;11.67;;;;;17.08;67.02;101169.06;5018689;28;45309;-65
2022/04/13 07:49:49;;;;;;;;;8.33;7.67;;;;;17.06;66.10;101168.41;5018332;28;45516;-67
2022/04/13 07:52:15;;;;;;;;;7.33;6.00;;;;;17.22;65.81;101193.34;5018628;28;46108;-65
2022/04/13 07:54:40;;;;;;;;;9.33;9.33;;;;;16.89;66.27;101130.03;5018411;28;45246;-66
2022/04/13 07:57:06;;;;;;;;;9.33;8.33;;;;;17.17;65.71;101171.50;5017330;28;45456;-66
2022/04/13 07:59:31;;;;;;;;;8.67;7.67;;;;;17.31;64.79;101186.88;5018262;28;45247;-65
2022/04/13 08:01:57;;;;;;;;;7.67;6.67;;;;;17.34;64.53;101191.06;5017932;28;45744;-66
2022/04/13 08:04:23;;;;;;;;;6.67;4.33;;;;;16.65;63.92;101077.25;5017722;28;45527;-66
2022/04/13 08:06:48;;;;;;;;;4.67;4.67;;;;;17.06;63.78;101145.06;5007797;28;45512;-66
2022/04/13 08:09:14;;;;;;;;;5.67;5.67;;;;;17.25;64.19;101174.16;5018002;28;45166;-66
2022/04/13 08:11:39;;;;;;;;;6.00;6.00;;;;;17.39;63.96;101187.84;5018158;28;45443;-66
2022/04/13 08:14:05;;;;;;;;;5.67;5.67;;;;;17.40;64.13;101194.88;5020546;28;45560;-66
2022/04/13 08:16:31;;;;;;;;;7.33;5.33;;;;;17.28;63.95;101181.88;5018312;28;45384;-66
2022/04/13 08:18:57;;;;;;;;;6.33;6.00;;;;;17.29;64.20;101178.16;5010734;28;45573;-65
2022/04/13 08:21:22;;;;;;;;;5.67;5.00;;;;;17.28;63.82;101187.25;5014649;28;46650;-66
2022/04/13 08:23:48;;;;;;;;;8.00;8.00;;;;;17.40;63.64;101197.56;5015648;28;45548;-65
2022/04/13 08:26:13;;;;;;;;;5.00;5.00;;;;;17.38;64.18;101197.75;5016057;28;45667;-66
2022/04/13 08:28:38;;;;;;;;;8.67;7.33;;;;;17.45;64.91;101209.50;5016604;28;45425;-68
2022/04/13 08:31:04;;;;;;;;;8.33;8.00;;;;;17.47;64.74;101194.00;5015511;28;46208;-66
2022/04/13 08:33:32;;;;;;;;;11.67;8.67;;;;;17.53;65.26;101204.06;5015731;28;45555;-65
2022/04/13 08:35:57;;;;;;;;;8.33;6.67;;;;;17.46;64.35;101194.19;5016784;28;45494;-68
2022/04/13 08:38:23;;;;;;;;;6.67;6.67;;;;;17.44;64.30;101204.28;5016427;28;45511;-66
2022/04/13 08:41:00;;;;;;;;;11.67;8.00;;;;;17.45;65.19;101214.03;5015424;28;46110;-66
2022/04/13 08:43:32;;;;;;;;;8.67;7.33;;;;;17.53;65.33;101238.16;4995095;28;45643;-67
2022/04/13 08:46:00;;;;;;;;;9.67;8.33;;;;;17.53;65.18;101235.47;4997828;28;45388;-68
2022/04/13 08:48:26;;;;;;;;;8.33;7.67;;;;;17.57;65.04;101247.53;5004628;28;45523;-67
2022/04/13 08:51:00;;;;;;;;;10.33;10.33;;;;;17.58;64.91;101246.53;5017276;28;46550;-66
2022/04/13 08:53:33;;;;;;;;;10.00;9.00;;;;;17.54;65.12;101242.53;5015715;28;45542;-65
2022/04/13 08:55:59;;;;;;;;;9.67;9.67;;;;;17.49;65.04;101247.59;5015515;28;45547;-67
2022/04/13 08:58:25;;;;;;;;;8.33;8.33;;;;;17.51;65.47;101254.47;5017244;28;45378;-69
2022/04/13 09:00:55;;;;;;;;;8.67;8.33;;;;;17.45;65.25;101262.41;5016629;28;47854;-66
2022/04/13 09:03:38;;;;;;;;;9.00;8.00;;;;;17.47;65.07;101265.75;5017130;28;45336;-65
2022/04/13 09:06:05;;;;;;;;;11.67;10.00;;;;;17.42;65.20;101262.75;5016124;28;45495;-66
2022/04/13 09:08:53;;;;;;;;;11.00;10.67;;;;;17.47;65.60;101271.97;5017910;28;45507;-65
2022/04/13 09:11:22;;;;;;;;;9.00;9.00;;;;;17.48;65.56;101278.19;5001868;28;47665;-66
2022/04/13 09:13:49;;;;;;;;;8.67;8.67;;;;;17.44;65.18;101279.56;5017639;28;45379;-66
2022/04/13 09:16:15;;;;;;;;;7.67;7.33;;;;;17.41;65.44;101278.03;5017284;28;45542;-66
2022/04/13 09:18:42;;;;;;;;;8.00;5.67;;;;;17.40;65.57;101289.78;5017541;28;45244;-66
2022/04/13 09:21:08;;;;;;;;;8.00;5.00;;;;;17.33;65.58;101289.66;5014933;28;46559;-66
2022/04/13 09:23:33;;;;;;;;;10.00;8.67;;;;;17.27;66.36;101270.72;5016352;28;45269;-66
2022/04/13 09:26:00;;;;;;;;;10.67;8.33;;;;;17.38;65.90;101288.31;5012074;28;45495;-66
2022/04/13 09:28:29;;;;;;;;;9.67;9.00;;;;;17.32;65.75;101281.78;5008839;28;45764;-71
2022/04/13 09:30:55;;;;;;;;;20.00;13.00;;;;;17.33;65.50;101276.22;5013164;28;45730;-66
2022/04/13 09:33:23;;;;;;;;;8.67;8.67;;;;;17.51;65.45;101281.34;5016831;28;45421;-66
2022/04/13 09:35:49;;;;;;;;;10.33;10.00;;;;;17.51;64.98;101267.06;5016102;28;45539;-67
2022/04/13 09:38:16;;;;;;;;;11.00;10.33;;;;;17.73;65.65;101309.31;5016940;28;45418;-66
2022/04/13 09:40:42;;;;;;;;;16.00;10.00;;;;;17.72;65.87;101306.81;5015909;28;46383;-66
2022/04/13 09:43:18;;;;;;;;;11.67;11.33;;;;;17.69;65.81;101299.09;5016400;28;45411;-71
2022/04/13 09:45:46;;;;;;;;;20.67;19.67;;;;;17.79;65.82;101303.22;4996754;28;45470;-66
2022/04/13 09:48:16;;;;;;;;;15.67;12.33;;;;;17.89;65.45;101305.72;4997004;28;45583;-67
2022/04/13 09:50:44;;;;;;;;;12.00;12.00;;;;;17.52;65.54;101260.69;4996278;28;45843;-67
2022/04/13 09:53:10;;;;;;;;;15.67;14.33;;;;;17.72;64.35;101306.81;5004579;28;45451;-66
2022/04/13 09:55:44;;;;;;;;;17.00;15.67;;;;;17.41;64.57;101267.28;5014766;28;45354;-67
2022/04/13 09:58:16;;;;;;;;;13.33;10.67;;;;;17.56;65.03;101291.56;5012673;28;45964;-67
2022/04/13 10:00:45;;;;;;;;;22.67;17.33;;;;;17.30;65.61;101249.72;5014496;28;46315;-65
2022/04/13 10:03:20;;;;;;;;;12.67;12.67;;;;;17.52;65.58;101263.38;5013950;28;45834;-67
2022/04/13 10:05:51;;;;;;;;;17.00;16.33;;;;;17.72;65.55;101296.06;5015791;28;45384;-66
2022/04/13 10:08:28;;;;;;;;;15.00;14.33;;;;;17.81;64.65;101311.13;5016590;28;45486;-69
2022/04/13 10:10:59;;;;;;;;;16.00;16.00;;;;;17.82;65.43;101312.78;5016156;28;45899;-69
2022/04/13 10:13:43;;;;;;;;;12.00;12.00;;;;;17.62;64.88;101285.50;5016311;28;45364;-68
2022/04/13 10:16:10;;;;;;;;;16.67;16.67;;;;;17.56;64.96;101295.09;5016123;28;45546;-69
2022/04/13 10:18:56;;;;;;;;;12.67;9.67;;;;;17.56;65.48;101305.00;5016382;28;45460;-69
2022/04/13 10:21:37;;;;;;;;;13.67;13.67;;;;;17.54;65.80;101305.19;4994873;28;49050;-68
2022/04/13 10:24:03;;;;;;;;;12.67;12.33;;;;;17.62;65.44;101307.03;5011737;28;45454;-69
2022/04/13 10:26:29;;;;;;;;;18.33;18.33;;;;;17.67;65.79;101310.00;5017407;28;45200;-68
2022/04/13 10:28:54;;;;;;;;;17.33;14.33;;;;;17.63;64.57;101300.63;5014498;28;45701;-67
2022/04/13 10:31:21;;;;;;;;;14.67;14.67;;;;;17.52;65.26;101284.88;5014788;28;47334;-69
2022/04/13 10:33:48;;;;;;;;;11.67;11.33;;;;;17.69;65.90;101317.94;5011152;28;45325;-68
2022/04/13 10:36:15;;;;;;;;;11.00;11.00;;;;;17.69;65.32;101305.31;4996263;28;45263;-68
2022/04/13 10:38:46;;;;;;;;;18.33;16.33;;;;;17.68;65.19;101306.34;4996057;28;45516;-69
2022/04/13 10:41:21;;;;;;;;;13.33;13.33;;;;;17.79;65.57;101318.53;4996082;28;46453;-69
2022/04/13 10:43:50;;;;;;;;;8.33;8.33;;;;;17.85;64.12;101309.78;4994909;28;46366;-70
2022/04/13 10:46:25;;;;;;;;;13.33;9.33;;;;;18.00;64.45;101309.81;5011117;28;45410;-68
2022/04/13 10:48:55;;;;;;;;;15.33;13.00;;;;;18.14;64.24;101306.38;5017084;28;45332;-68
2022/04/13 10:51:25;;;;;;;;;12.67;10.00;;;;;18.32;63.69;101309.59;5019305;28;45861;-67
2022/04/13 10:54:06;;;;;;;;;10.33;10.00;;;;;18.50;63.74;101306.59;5017484;28;45357;-68
2022/04/13 10:56:33;;;;;;;;;11.00;10.00;;;;;18.59;62.42;101310.84;5018751;28;45408;-72
2022/04/13 10:59:24;;;;;;;;;13.67;8.67;;;;;18.62;62.54;101315.03;5015256;28;45689;-69
2022/04/13 11:01:58;;;;;;;;;11.00;10.67;;;;;18.71;61.90;101304.06;5016214;28;45769;-68
2022/04/13 11:04:27;;;;;;;;;11.67;9.33;;;;;18.80;61.28;101318.25;5018117;28;45641;-68
2022/04/13 11:06:53;;;;;;;;;10.00;9.00;;;;;18.93;61.30;101312.25;5017928;28;45479;-69
2022/04/13 11:09:32;;;;;;;;;16.33;10.67;;;;;18.80;60.93;101294.84;5018947;28;45585;-68
2022/04/13 11:11:59;;;;;;;;;10.33;8.00;;;;;18.99;61.17;101315.03;5018917;28;45826;-68
2022/04/13 11:14:25;;;;;;;;;12.00;12.00;;;;;19.01;61.35;101312.97;5019010;28;45495;-68
2022/04/13 11:17:05;;;;;;;;;7.33;7.33;;;;;19.06;61.15;101317.84;5018804;28;45420;-69
2022/04/13 11:19:30;;;;;;;;;11.33;8.33;;;;;19.03;60.49;101312.84;5019310;28;45440;-68
2022/04/13 11:21:59;;;;;;;;;7.33;7.33;;;;;19.14;59.82;101318.56;5018043;28;46534;-69